sensor_id;sensor_type;location;lat;lon;timestamp;P1;durP1;ratioP1;P2;durP2;ratioP2
35394;SDS011;21500;45.308;9.488;2022-10-17T17:36:13;52.75;;;34.55;;
35394;SDS011;21500;45.308;9.488;2022-10-17T17:38:54;52.65;;;36.05;;
35394;SDS011;21500;45.308;9.488;2022-10-17T17:41:22;51.22;;;36.78;;
35394;SDS011;21500;45.308;9.488;2022-10-17T17:43:49;56.03;;;36.20;;
35394;SDS011;21500;45.308;9.488;2022-10-17T17:46:22;51.17;;;35.85;;
35394;SDS011;21500;45.308;9.488;2022-10-17T17:49:04;58.72;;;34.80;;
35394;SDS011;21500;45.308;9.488;2022-10-17T17:51:31;53.33;;;34.60;;
35394;SDS011;21500;45.308;9.488;2022-10-17T17:54:02;48.45;;;33.70;;
35394;SDS011;21500;45.308;9.488;2022-10-17T17:56:50;47.35;;;32.42;;
35394;SDS011;21500;45.308;9.488;2022-10-17T18:04:38;50.90;;;34.88;;
35394;SDS011;21500;45.308;9.488;2022-10-17T18:07:58;55.67;;;36.42;;
35394;SDS011;21500;45.308;9.488;2022-10-17T18:10:27;57.50;;;34.67;;
35394;SDS011;21500;45.308;9.488;2022-10-17T18:12:56;51.67;;;35.05;;
35394;SDS011;21500;45.308;9.488;2022-10-17T18:15:24;51.22;;;35.88;;
35394;SDS011;21500;45.308;9.488;2022-10-17T18:17:53;57.38;;;34.75;;
35394;SDS011;21500;45.308;9.488;2022-10-17T18:26:00;54.90;;;35.90;;
35394;SDS011;21500;45.308;9.488;2022-10-17T18:39:22;56.95;;;39.25;;
35394;SDS011;21500;45.308;9.488;2022-10-17T18:41:57;55.20;;;37.88;;
35394;SDS011;21500;45.308;9.488;2022-10-17T18:44:23;56.58;;;37.70;;
35394;SDS011;21500;45.308;9.488;2022-10-17T19:00:24;62.50;;;40.58;;
35394;SDS011;21500;45.308;9.488;2022-10-17T19:17:28;59.67;;;41.95;;
35394;SDS011;21500;45.308;9.488;2022-10-17T19:23:07;60.38;;;41.15;;
35394;SDS011;21500;45.308;9.488;2022-10-17T19:26:06;61.60;;;42.45;;
35394;SDS011;21500;45.308;9.488;2022-10-17T19:28:50;57.75;;;40.75;;
35394;SDS011;21500;45.308;9.488;2022-10-17T19:31:53;62.03;;;42.80;;
35394;SDS011;21500;45.308;9.488;2022-10-17T19:34:58;63.30;;;42.28;;
35394;SDS011;21500;45.308;9.488;2022-10-17T19:37:30;55.88;;;42.20;;
35394;SDS011;21500;45.308;9.488;2022-10-17T19:40:39;61.75;;;41.35;;
35394;SDS011;21500;45.308;9.488;2022-10-17T19:43:34;59.88;;;42.30;;
35394;SDS011;21500;45.308;9.488;2022-10-17T19:46:16;62.53;;;41.25;;
35394;SDS011;21500;45.308;9.488;2022-10-17T19:49:01;64.60;;;42.53;;
35394;SDS011;21500;45.308;9.488;2022-10-17T19:51:32;61.38;;;40.83;;
35394;SDS011;21500;45.308;9.488;2022-10-17T19:54:06;56.65;;;38.25;;
35394;SDS011;21500;45.308;9.488;2022-10-17T19:57:08;57.30;;;40.25;;
35394;SDS011;21500;45.308;9.488;2022-10-17T19:59:41;63.75;;;41.80;;
35394;SDS011;21500;45.308;9.488;2022-10-17T20:02:11;58.05;;;42.30;;
35394;SDS011;21500;45.308;9.488;2022-10-17T20:04:42;65.40;;;41.75;;
35394;SDS011;21500;45.308;9.488;2022-10-17T20:07:26;63.47;;;44.65;;
35394;SDS011;21500;45.308;9.488;2022-10-17T20:10:24;67.13;;;42.33;;
35394;SDS011;21500;45.308;9.488;2022-10-17T20:13:09;57.53;;;40.63;;
35394;SDS011;21500;45.308;9.488;2022-10-17T20:15:40;57.08;;;40.83;;
35394;SDS011;21500;45.308;9.488;2022-10-17T20:18:24;53.78;;;38.63;;
35394;SDS011;21500;45.308;9.488;2022-10-17T20:20:54;57.33;;;39.72;;
35394;SDS011;21500;45.308;9.488;2022-10-17T20:23:24;55.13;;;39.25;;
35394;SDS011;21500;45.308;9.488;2022-10-17T20:26:12;58.40;;;41.35;;
35394;SDS011;21500;45.308;9.488;2022-10-17T20:28:48;58.58;;;40.40;;
35394;SDS011;21500;45.308;9.488;2022-10-17T20:31:33;62.47;;;41.97;;
35394;SDS011;21500;45.308;9.488;2022-10-17T20:34:06;66.00;;;44.42;;
35394;SDS011;21500;45.308;9.488;2022-10-17T20:36:51;69.38;;;43.13;;
35394;SDS011;21500;45.308;9.488;2022-10-17T20:39:23;64.22;;;42.80;;
35394;SDS011;21500;45.308;9.488;2022-10-17T20:41:58;61.50;;;42.17;;
35394;SDS011;21500;45.308;9.488;2022-10-17T20:44:25;61.78;;;43.97;;
35394;SDS011;21500;45.308;9.488;2022-10-17T20:49:34;61.08;;;44.88;;
35394;SDS011;21500;45.308;9.488;2022-10-17T20:52:19;62.00;;;43.78;;
35394;SDS011;21500;45.308;9.488;2022-10-17T20:54:58;66.55;;;46.08;;
35394;SDS011;21500;45.308;9.488;2022-10-17T20:57:27;62.95;;;42.72;;
35394;SDS011;21500;45.308;9.488;2022-10-17T20:59:59;60.60;;;45.60;;
35394;SDS011;21500;45.308;9.488;2022-10-17T21:02:34;71.75;;;46.42;;
35394;SDS011;21500;45.308;9.488;2022-10-17T21:05:06;66.90;;;44.40;;
35394;SDS011;21500;45.308;9.488;2022-10-17T21:07:53;67.32;;;45.30;;
35394;SDS011;21500;45.308;9.488;2022-10-17T21:10:32;60.70;;;45.00;;
35394;SDS011;21500;45.308;9.488;2022-10-17T21:13:07;62.85;;;44.15;;
35394;SDS011;21500;45.308;9.488;2022-10-17T21:15:43;73.35;;;46.15;;
35394;SDS011;21500;45.308;9.488;2022-10-17T21:18:14;69.82;;;46.80;;
35394;SDS011;21500;45.308;9.488;2022-10-17T21:21:10;67.53;;;47.58;;
35394;SDS011;21500;45.308;9.488;2022-10-17T21:23:45;67.53;;;47.75;;
35394;SDS011;21500;45.308;9.488;2022-10-17T21:26:19;71.85;;;49.65;;
35394;SDS011;21500;45.308;9.488;2022-10-17T21:28:53;62.22;;;45.72;;
35394;SDS011;21500;45.308;9.488;2022-10-17T21:31:29;75.43;;;48.53;;
35394;SDS011;21500;45.308;9.488;2022-10-17T21:34:10;72.50;;;46.25;;
35394;SDS011;21500;45.308;9.488;2022-10-17T21:36:39;70.35;;;48.13;;
35394;SDS011;21500;45.308;9.488;2022-10-17T21:39:12;69.95;;;46.65;;
35394;SDS011;21500;45.308;9.488;2022-10-17T21:41:50;63.92;;;45.22;;
35394;SDS011;21500;45.308;9.488;2022-10-17T21:44:26;61.70;;;44.75;;
35394;SDS011;21500;45.308;9.488;2022-10-17T21:47:00;70.45;;;48.42;;
35394;SDS011;21500;45.308;9.488;2022-10-17T21:49:27;69.57;;;47.17;;
35394;SDS011;21500;45.308;9.488;2022-10-17T21:51:55;62.97;;;45.55;;
35394;SDS011;21500;45.308;9.488;2022-10-17T21:54:23;68.97;;;45.22;;
35394;SDS011;21500;45.308;9.488;2022-10-17T21:57:13;66.28;;;46.10;;
35394;SDS011;21500;45.308;9.488;2022-10-17T21:59:43;73.20;;;46.33;;
35394;SDS011;21500;45.308;9.488;2022-10-17T22:05:02;63.70;;;46.08;;
35394;SDS011;21500;45.308;9.488;2022-10-17T22:07:37;68.45;;;46.47;;
35394;SDS011;21500;45.308;9.488;2022-10-17T22:10:05;69.32;;;45.45;;
35394;SDS011;21500;45.308;9.488;2022-10-17T22:12:44;70.53;;;46.88;;
35394;SDS011;21500;45.308;9.488;2022-10-17T22:15:24;67.73;;;46.43;;
35394;SDS011;21500;45.308;9.488;2022-10-17T22:17:57;69.55;;;47.97;;
35394;SDS011;21500;45.308;9.488;2022-10-17T22:20:32;80.10;;;53.33;;
35394;SDS011;21500;45.308;9.488;2022-10-17T22:23:00;69.28;;;49.78;;
35394;SDS011;21500;45.308;9.488;2022-10-17T22:25:56;74.93;;;50.38;;
35394;SDS011;21500;45.308;9.488;2022-10-17T22:28:47;73.07;;;49.00;;
35394;SDS011;21500;45.308;9.488;2022-10-17T22:31:17;85.53;;;54.33;;
35394;SDS011;21500;45.308;9.488;2022-10-17T22:33:45;78.80;;;55.50;;
35394;SDS011;21500;45.308;9.488;2022-10-17T22:36:17;83.38;;;58.03;;
35394;SDS011;21500;45.308;9.488;2022-10-17T22:38:46;92.53;;;58.72;;
35394;SDS011;21500;45.308;9.488;2022-10-17T22:41:17;85.85;;;58.10;;
35394;SDS011;21500;45.308;9.488;2022-10-17T22:43:49;78.20;;;55.67;;
35394;SDS011;21500;45.308;9.488;2022-10-17T22:46:31;86.60;;;56.55;;
35394;SDS011;21500;45.308;9.488;2022-10-17T22:49:07;83.38;;;56.80;;
35394;SDS011;21500;45.308;9.488;2022-10-17T22:51:37;82.75;;;53.78;;
35394;SDS011;21500;45.308;9.488;2022-10-17T22:54:04;79.60;;;52.88;;
35394;SDS011;21500;45.308;9.488;2022-10-17T22:56:35;80.55;;;55.00;;
35394;SDS011;21500;45.308;9.488;2022-10-17T22:59:19;78.68;;;51.20;;
35394;SDS011;21500;45.308;9.488;2022-10-17T23:01:53;74.55;;;53.40;;
35394;SDS011;21500;45.308;9.488;2022-10-17T23:04:22;89.25;;;56.70;;
35394;SDS011;21500;45.308;9.488;2022-10-17T23:06:50;87.05;;;57.05;;
35394;SDS011;21500;45.308;9.488;2022-10-17T23:09:19;87.93;;;59.60;;
35394;SDS011;21500;45.308;9.488;2022-10-17T23:11:45;95.20;;;59.80;;
35394;SDS011;21500;45.308;9.488;2022-10-17T23:14:21;92.65;;;64.28;;
35394;SDS011;21500;45.308;9.488;2022-10-17T23:16:54;96.82;;;66.97;;
35394;SDS011;21500;45.308;9.488;2022-10-17T23:19:25;100.03;;;64.68;;
35394;SDS011;21500;45.308;9.488;2022-10-17T23:21:56;92.40;;;59.67;;
35394;SDS011;21500;45.308;9.488;2022-10-17T23:24:26;92.45;;;60.45;;
35394;SDS011;21500;45.308;9.488;2022-10-17T23:26:56;88.07;;;61.33;;
35394;SDS011;21500;45.308;9.488;2022-10-17T23:29:22;93.68;;;64.65;;
35394;SDS011;21500;45.308;9.488;2022-10-17T23:31:52;93.05;;;63.35;;
35394;SDS011;21500;45.308;9.488;2022-10-17T23:34:30;96.25;;;63.58;;
35394;SDS011;21500;45.308;9.488;2022-10-17T23:37:00;92.18;;;62.47;;
35394;SDS011;21500;45.308;9.488;2022-10-17T23:39:27;94.60;;;63.42;;
35394;SDS011;21500;45.308;9.488;2022-10-17T23:41:53;89.75;;;60.80;;
35394;SDS011;21500;45.308;9.488;2022-10-17T23:44:22;90.97;;;62.28;;
35394;SDS011;21500;45.308;9.488;2022-10-17T23:46:51;95.28;;;65.47;;
35394;SDS011;21500;45.308;9.488;2022-10-17T23:49:21;93.05;;;62.78;;
35394;SDS011;21500;45.308;9.488;2022-10-17T23:51:47;94.90;;;62.75;;
35394;SDS011;21500;45.308;9.488;2022-10-17T23:54:18;97.93;;;62.30;;
35394;SDS011;21500;45.308;9.488;2022-10-17T23:57:48;93.13;;;61.35;;
